DenmarkFixed distance
O.U.T. - Outdoor Ultra Trail 101km
3 Sep2022
Distance
101km
Finishers
5543 men12 women
Winning time
8:39:35h
Median pace
7.71km/h
Pace distribution
55 finishers · 6.54–11.66 km/h · mean 7.74
Every finisher ran the same 101 km course, so these paces are directly comparable.
Histogram of finisher pace. 55 finishers ranged from 6.54 to 11.66 kilometres per hour, with a mean of 7.74 and a median of 7.71. The busiest band is 6.5 to 7.0 kilometres per hour, with 16 finishers.
Results
Ranks 1–50 of 55
| Rank | Runner | Time | Pace | Cat. | Placing |
|---|---|---|---|---|---|
| 1 | 8:39:35h | 11.66 | M35 | 1st M · 1st M35 | |
| 2 | Team Tailwind DK / Tem... | 9:38:54h | 10.47 | M45 | 2nd M · 1st M45 |
| 3 | Sport24/Royal Newton | 10:41:21h | 9.45 | M50 | 3rd M · 1st M50 |
| 4 | 11:16:31h | 8.96 | M35 | 4th M · 2nd M35 | |
| 5 | Ebeltoft LØB OG Motion | 11:27:44h | 8.81 | M50 | 5th M · 2nd M50 |
| 6 | Eventyrsport/Agf Atletik | 11:34:33h | 8.72 | W23 | 1st F · 1st W23 |
| 7 | Herlevløberne | 11:35:33h | 8.71 | M40 | 6th M · 1st M40 |
| 8 | Gular | 11:44:12h | 8.61 | W45 | 2nd F · 1st W45 |
| 9 | @HR.Larsson | 11:47:28h | 8.57 | M40 | 7th M · 2nd M40 |
| 10 | Extinction Rebellion | 11:47:29h | 8.57 | M50 | 8th M · 3rd M50 |
| 11 | 11:48:29h | 8.55 | M45 | 9th M · 2nd M45 | |
| 12 | Trail Fun Experience | 12:01:36h | 8.40 | M23 | 10th M · 1st M23 |
| 13 | 12:02:36h | 8.39 | M35 | 11th M · 3rd M35 | |
| 14 | Timeforu.DK | 12:03:20h | 8.38 | M55 | 12th M · 1st M55 |
| 15 | Team Pyller | 12:06:31h | 8.34 | M55 | 13th M · 2nd M55 |
| 16 | 12:07:17h | 8.33 | M40 | 14th M · 3rd M40 | |
| 17 | Trailrunning Silkeborg | 12:07:46h | 8.33 | M60 | 15th M · 1st M60 |
| 18 | TIK Løberne | 12:15:31h | 8.24 | M45 | 16th M · 3rd M45 |
| 19 | Team Dopingowác | 12:22:07h | 8.17 | M35 | 17th M · 4th M35 |
| 20 | Team Dopingowác | 12:22:08h | 8.17 | M35 | 18th M · 5th M35 |
| 21 | 12:27:26h | 8.11 | W45 | 3rd F · 2nd W45 | |
| 22 | 12:39:39h | 7.98 | W45 | 4th F · 3rd W45 | |
| 23 | Nordkraft LØB OG Motion | 12:41:46h | 7.96 | M40 | 19th M · 4th M40 |
| 24 | 12:45:39h | 7.92 | M23 | 20th M · 2nd M23 | |
| 25 | Trailrunning Silkeborg | 12:55:51h | 7.81 | M60 | 21st M · 2nd M60 |
| 26 | Silkeborg OK Trail | 12:57:15h | 7.80 | M40 | 22nd M · 5th M40 |
| 27 | Dømmestrup’Erne | 13:04:36h | 7.72 | M35 | 23rd M · 6th M35 |
| 28 | 13:05:44h | 7.71 | M40 | 24th M · 6th M40 | |
| 29 | 13:08:33h | 7.68 | M45 | 25th M · 4th M45 | |
| 30 | Extinction Rebellion | 13:11:13h | 7.66 | W35 | 5th F · 1st W35 |
| 31 | 13:48:35h | 7.31 | M23 | 26th M · 3rd M23 | |
| 32 | Skive Trailrunners | 13:55:02h | 7.26 | W45 | 6th F · 4th W45 |
| 33 | 13:55:08h | 7.26 | M35 | 27th M · 7th M35 | |
| 34 | 13:55:08h | 7.26 | M23 | 27th M · 4th M23 | |
| 35 | Team GTV | 14:10:18h | 7.13 | MU23 | 29th M · 1st MU23 |
| 36 | Nordtrim | 14:16:10h | 7.08 | W50 | 7th F · 1st W50 |
| 37 | 14:18:02h | 7.06 | M50 | 30th M · 4th M50 | |
| 38 | 14:19:17h | 7.05 | M40 | 31st M · 7th M40 | |
| 39 | T&P | 14:25:33h | 7.00 | M45 | 32nd M · 5th M45 |
| 40 | Dømmestrup’Erne | 14:28:03h | 6.98 | M35 | 33rd M · 8th M35 |
| 41 | Tønder Løbeklub | 14:28:09h | 6.98 | M45 | 34th M · 6th M45 |
| 42 | 14:29:17h | 6.97 | — | 35th M | |
| 43 | Esbjerg Running | 14:58:32h | 6.74 | M23 | 36th M · 5th M23 |
| 44 | Trail Fun Experience | 14:59:45h | 6.74 | M23 | 37th M · 6th M23 |
| 45 | Trail Fun Experience | 14:59:46h | 6.74 | M23 | 38th M · 7th M23 |
| 46 | Trail Fun Experience | 14:59:46h | 6.74 | M23 | 38th M · 7th M23 |
| 47 | VI Løber I Randers | 15:01:57h | 6.72 | M50 | 40th M · 5th M50 |
| 48 | 15:10:00h | 6.66 | W50 | 8th F · 2nd W50 | |
| 49 | 15:16:25h | 6.61 | W23 | 9th F · 2nd W23 | |
| 50 | 15:16:26h | 6.61 | — | 10th F |
- 11st M · 1st M35Time8:39:35hPace11.66Cat.M35
- 2Team Tailwind DK / Tem...2nd M · 1st M45Time9:38:54hPace10.47Cat.M45
- 3Sport24/Royal Newton3rd M · 1st M50Time10:41:21hPace9.45Cat.M50
- 44th M · 2nd M35Time11:16:31hPace8.96Cat.M35
- 5Ebeltoft LØB OG Motion5th M · 2nd M50Time11:27:44hPace8.81Cat.M50
- 6Eventyrsport/Agf Atletik1st F · 1st W23Time11:34:33hPace8.72Cat.W23
- 7Herlevløberne6th M · 1st M40Time11:35:33hPace8.71Cat.M40
- 8Gular2nd F · 1st W45Time11:44:12hPace8.61Cat.W45
- 9@HR.Larsson7th M · 2nd M40Time11:47:28hPace8.57Cat.M40
- 10Extinction Rebellion8th M · 3rd M50Time11:47:29hPace8.57Cat.M50
- 119th M · 2nd M45Time11:48:29hPace8.55Cat.M45
- 12Trail Fun Experience10th M · 1st M23Time12:01:36hPace8.40Cat.M23
- 1311th M · 3rd M35Time12:02:36hPace8.39Cat.M35
- 14Timeforu.DK12th M · 1st M55Time12:03:20hPace8.38Cat.M55
- 15Team Pyller13th M · 2nd M55Time12:06:31hPace8.34Cat.M55
- 1614th M · 3rd M40Time12:07:17hPace8.33Cat.M40
- 17Trailrunning Silkeborg15th M · 1st M60Time12:07:46hPace8.33Cat.M60
- 18TIK Løberne16th M · 3rd M45Time12:15:31hPace8.24Cat.M45
- 19Team Dopingowác17th M · 4th M35Time12:22:07hPace8.17Cat.M35
- 20Team Dopingowác18th M · 5th M35Time12:22:08hPace8.17Cat.M35
- 213rd F · 2nd W45Time12:27:26hPace8.11Cat.W45
- 224th F · 3rd W45Time12:39:39hPace7.98Cat.W45
- 23Nordkraft LØB OG Motion19th M · 4th M40Time12:41:46hPace7.96Cat.M40
- 2420th M · 2nd M23Time12:45:39hPace7.92Cat.M23
- 25Trailrunning Silkeborg21st M · 2nd M60Time12:55:51hPace7.81Cat.M60
- 26Silkeborg OK Trail22nd M · 5th M40Time12:57:15hPace7.80Cat.M40
- 27Dømmestrup’Erne23rd M · 6th M35Time13:04:36hPace7.72Cat.M35
- 2824th M · 6th M40Time13:05:44hPace7.71Cat.M40
- 2925th M · 4th M45Time13:08:33hPace7.68Cat.M45
- 30Extinction Rebellion5th F · 1st W35Time13:11:13hPace7.66Cat.W35
- 3126th M · 3rd M23Time13:48:35hPace7.31Cat.M23
- 32Skive Trailrunners6th F · 4th W45Time13:55:02hPace7.26Cat.W45
- 3327th M · 7th M35Time13:55:08hPace7.26Cat.M35
- 3427th M · 4th M23Time13:55:08hPace7.26Cat.M23
- 35Team GTV29th M · 1st MU23Time14:10:18hPace7.13Cat.MU23
- 36Nordtrim7th F · 1st W50Time14:16:10hPace7.08Cat.W50
- 3730th M · 4th M50Time14:18:02hPace7.06Cat.M50
- 3831st M · 7th M40Time14:19:17hPace7.05Cat.M40
- 39T&P32nd M · 5th M45Time14:25:33hPace7.00Cat.M45
- 40Dømmestrup’Erne33rd M · 8th M35Time14:28:03hPace6.98Cat.M35
- 41Tønder Løbeklub34th M · 6th M45Time14:28:09hPace6.98Cat.M45
- 4235th MTime14:29:17hPace6.97
- 43Esbjerg Running36th M · 5th M23Time14:58:32hPace6.74Cat.M23
- 44Trail Fun Experience37th M · 6th M23Time14:59:45hPace6.74Cat.M23
- 45Trail Fun Experience38th M · 7th M23Time14:59:46hPace6.74Cat.M23
- 46Trail Fun Experience38th M · 7th M23Time14:59:46hPace6.74Cat.M23
- 47VI Løber I Randers40th M · 5th M50Time15:01:57hPace6.72Cat.M50
- 488th F · 2nd W50Time15:10:00hPace6.66Cat.W50
- 499th F · 2nd W23Time15:16:25hPace6.61Cat.W23
- 5010th FTime15:16:26hPace6.61
Showing ranks 1–50 of 55